sensor_id;sensor_type;location;lat;lon;timestamp;P1;durP1;ratioP1;P2;durP2;ratioP2
13951;SDS011;39535;52.192;9.886;2023-03-11T00:00:14;18.13;;;16.33;;
13951;SDS011;39535;52.192;9.886;2023-03-11T00:02:44;18.47;;;16.53;;
13951;SDS011;39535;52.192;9.886;2023-03-11T00:05:11;16.63;;;15.03;;
13951;SDS011;39535;52.192;9.886;2023-03-11T00:07:41;16.67;;;14.23;;
13951;SDS011;39535;52.192;9.886;2023-03-11T00:10:08;15.40;;;14.00;;
13951;SDS011;39535;52.192;9.886;2023-03-11T00:12:39;14.27;;;12.77;;
13951;SDS011;39535;52.192;9.886;2023-03-11T00:15:06;13.63;;;12.20;;
13951;SDS011;39535;52.192;9.886;2023-03-11T00:17:33;13.23;;;12.03;;
13951;SDS011;39535;52.192;9.886;2023-03-11T00:20:01;12.13;;;11.10;;
13951;SDS011;39535;52.192;9.886;2023-03-11T00:22:29;11.43;;;10.43;;
13951;SDS011;39535;52.192;9.886;2023-03-11T00:24:55;12.23;;;11.07;;
13951;SDS011;39535;52.192;9.886;2023-03-11T00:27:21;12.70;;;11.40;;
13951;SDS011;39535;52.192;9.886;2023-03-11T00:29:48;12.30;;;11.10;;
13951;SDS011;39535;52.192;9.886;2023-03-11T00:32:14;12.03;;;10.93;;
13951;SDS011;39535;52.192;9.886;2023-03-11T00:34:40;11.87;;;10.77;;
13951;SDS011;39535;52.192;9.886;2023-03-11T00:37:08;12.67;;;11.47;;
13951;SDS011;39535;52.192;9.886;2023-03-11T00:39:34;11.77;;;10.77;;
13951;SDS011;39535;52.192;9.886;2023-03-11T00:42:01;11.57;;;10.47;;
13951;SDS011;39535;52.192;9.886;2023-03-11T00:44:27;11.57;;;10.50;;
13951;SDS011;39535;52.192;9.886;2023-03-11T00:46:54;9.80;;;8.70;;
13951;SDS011;39535;52.192;9.886;2023-03-11T00:49:20;10.53;;;9.53;;
13951;SDS011;39535;52.192;9.886;2023-03-11T00:51:47;9.93;;;9.03;;
13951;SDS011;39535;52.192;9.886;2023-03-11T00:54:14;10.17;;;9.17;;
13951;SDS011;39535;52.192;9.886;2023-03-11T00:56:41;10.43;;;9.50;;
13951;SDS011;39535;52.192;9.886;2023-03-11T00:59:07;8.70;;;7.90;;
13951;SDS011;39535;52.192;9.886;2023-03-11T01:01:33;10.23;;;9.23;;
13951;SDS011;39535;52.192;9.886;2023-03-11T01:04:00;9.67;;;8.80;;
13951;SDS011;39535;52.192;9.886;2023-03-11T01:06:26;8.03;;;7.30;;
13951;SDS011;39535;52.192;9.886;2023-03-11T01:08:52;8.27;;;7.47;;
13951;SDS011;39535;52.192;9.886;2023-03-11T01:11:20;7.30;;;6.60;;
13951;SDS011;39535;52.192;9.886;2023-03-11T01:13:46;7.10;;;6.40;;
13951;SDS011;39535;52.192;9.886;2023-03-11T01:16:13;6.20;;;5.70;;
13951;SDS011;39535;52.192;9.886;2023-03-11T01:18:39;6.43;;;5.93;;
13951;SDS011;39535;52.192;9.886;2023-03-11T01:21:05;5.10;;;4.70;;
13951;SDS011;39535;52.192;9.886;2023-03-11T01:23:32;4.47;;;4.07;;
13951;SDS011;39535;52.192;9.886;2023-03-11T01:25:58;5.00;;;4.00;;
13951;SDS011;39535;52.192;9.886;2023-03-11T01:28:26;3.83;;;3.53;;
13951;SDS011;39535;52.192;9.886;2023-03-11T01:30:52;4.50;;;4.10;;
13951;SDS011;39535;52.192;9.886;2023-03-11T01:33:18;6.20;;;4.43;;
13951;SDS011;39535;52.192;9.886;2023-03-11T01:35:45;4.87;;;4.47;;
13951;SDS011;39535;52.192;9.886;2023-03-11T01:38:13;4.67;;;4.30;;
13951;SDS011;39535;52.192;9.886;2023-03-11T01:40:41;4.20;;;3.80;;
13951;SDS011;39535;52.192;9.886;2023-03-11T01:46:22;5.47;;;4.93;;
13951;SDS011;39535;52.192;9.886;2023-03-11T01:48:50;5.43;;;4.93;;
13951;SDS011;39535;52.192;9.886;2023-03-11T01:51:19;4.90;;;4.50;;
13951;SDS011;39535;52.192;9.886;2023-03-11T01:53:50;5.27;;;4.80;;
13951;SDS011;39535;52.192;9.886;2023-03-11T01:56:17;5.70;;;5.20;;
13951;SDS011;39535;52.192;9.886;2023-03-11T01:58:45;7.03;;;4.73;;
13951;SDS011;39535;52.192;9.886;2023-03-11T02:01:14;5.47;;;4.97;;
13951;SDS011;39535;52.192;9.886;2023-03-11T02:03:42;5.87;;;4.47;;
13951;SDS011;39535;52.192;9.886;2023-03-11T02:06:09;5.13;;;4.63;;
13951;SDS011;39535;52.192;9.886;2023-03-11T02:08:39;5.07;;;4.57;;
13951;SDS011;39535;52.192;9.886;2023-03-11T02:11:07;4.87;;;4.47;;
13951;SDS011;39535;52.192;9.886;2023-03-11T02:13:36;5.10;;;4.60;;
13951;SDS011;39535;52.192;9.886;2023-03-11T02:16:05;5.00;;;4.53;;
13951;SDS011;39535;52.192;9.886;2023-03-11T02:18:32;5.63;;;4.80;;
13951;SDS011;39535;52.192;9.886;2023-03-11T02:21:02;4.70;;;4.27;;
13951;SDS011;39535;52.192;9.886;2023-03-11T02:23:34;8.63;;;4.80;;
13951;SDS011;39535;52.192;9.886;2023-03-11T02:26:05;4.80;;;4.40;;
13951;SDS011;39535;52.192;9.886;2023-03-11T02:28:37;4.90;;;4.50;;
13951;SDS011;39535;52.192;9.886;2023-03-11T02:31:04;5.83;;;5.33;;
13951;SDS011;39535;52.192;9.886;2023-03-11T02:33:31;4.77;;;4.37;;
13951;SDS011;39535;52.192;9.886;2023-03-11T02:36:01;5.03;;;4.63;;
13951;SDS011;39535;52.192;9.886;2023-03-11T02:38:28;6.47;;;4.97;;
13951;SDS011;39535;52.192;9.886;2023-03-11T02:40:54;5.23;;;4.73;;
13951;SDS011;39535;52.192;9.886;2023-03-11T02:43:23;5.10;;;4.60;;
13951;SDS011;39535;52.192;9.886;2023-03-11T02:45:55;6.00;;;4.63;;
13951;SDS011;39535;52.192;9.886;2023-03-11T02:48:22;4.90;;;4.50;;
13951;SDS011;39535;52.192;9.886;2023-03-11T02:50:48;4.97;;;4.13;;
13951;SDS011;39535;52.192;9.886;2023-03-11T02:53:15;4.73;;;4.33;;
13951;SDS011;39535;52.192;9.886;2023-03-11T02:55:41;4.30;;;4.00;;
13951;SDS011;39535;52.192;9.886;2023-03-11T02:58:08;4.37;;;3.93;;
13951;SDS011;39535;52.192;9.886;2023-03-11T03:00:34;5.30;;;4.80;;
13951;SDS011;39535;52.192;9.886;2023-03-11T03:03:02;4.80;;;4.20;;
13951;SDS011;39535;52.192;9.886;2023-03-11T03:05:28;4.70;;;3.63;;
13951;SDS011;39535;52.192;9.886;2023-03-11T03:07:55;5.07;;;4.60;;
13951;SDS011;39535;52.192;9.886;2023-03-11T03:10:21;5.23;;;4.73;;
13951;SDS011;39535;52.192;9.886;2023-03-11T03:12:48;4.57;;;4.17;;
13951;SDS011;39535;52.192;9.886;2023-03-11T03:15:14;5.87;;;4.43;;
13951;SDS011;39535;52.192;9.886;2023-03-11T03:17:41;4.20;;;3.30;;
13951;SDS011;39535;52.192;9.886;2023-03-11T03:20:09;6.57;;;4.00;;
13951;SDS011;39535;52.192;9.886;2023-03-11T03:22:38;4.97;;;4.03;;
13951;SDS011;39535;52.192;9.886;2023-03-11T03:25:05;7.10;;;4.03;;
13951;SDS011;39535;52.192;9.886;2023-03-11T03:27:32;5.47;;;4.80;;
13951;SDS011;39535;52.192;9.886;2023-03-11T03:29:59;6.57;;;4.07;;
13951;SDS011;39535;52.192;9.886;2023-03-11T03:32:25;5.43;;;4.23;;
13951;SDS011;39535;52.192;9.886;2023-03-11T03:34:52;5.40;;;4.53;;
13951;SDS011;39535;52.192;9.886;2023-03-11T03:37:24;4.40;;;3.43;;
13951;SDS011;39535;52.192;9.886;2023-03-11T03:39:51;5.67;;;4.17;;
13951;SDS011;39535;52.192;9.886;2023-03-11T03:42:17;4.70;;;4.13;;
13951;SDS011;39535;52.192;9.886;2023-03-11T03:44:44;4.17;;;3.70;;
13951;SDS011;39535;52.192;9.886;2023-03-11T03:47:11;6.03;;;3.87;;
13951;SDS011;39535;52.192;9.886;2023-03-11T03:49:37;8.03;;;3.90;;
13951;SDS011;39535;52.192;9.886;2023-03-11T03:52:04;8.60;;;4.07;;
13951;SDS011;39535;52.192;9.886;2023-03-11T03:54:32;3.60;;;3.27;;
13951;SDS011;39535;52.192;9.886;2023-03-11T03:56:58;4.93;;;3.30;;
13951;SDS011;39535;52.192;9.886;2023-03-11T03:59:24;4.90;;;3.50;;
13951;SDS011;39535;52.192;9.886;2023-03-11T04:01:51;5.13;;;3.67;;
13951;SDS011;39535;52.192;9.886;2023-03-11T04:04:17;6.20;;;3.50;;
13951;SDS011;39535;52.192;9.886;2023-03-11T04:06:43;7.93;;;3.30;;
13951;SDS011;39535;52.192;9.886;2023-03-11T04:09:10;6.20;;;3.40;;
13951;SDS011;39535;52.192;9.886;2023-03-11T04:11:38;5.73;;;3.33;;
13951;SDS011;39535;52.192;9.886;2023-03-11T04:14:04;4.57;;;3.13;;
13951;SDS011;39535;52.192;9.886;2023-03-11T04:16:31;5.70;;;3.00;;
13951;SDS011;39535;52.192;9.886;2023-03-11T04:18:58;10.27;;;3.57;;
13951;SDS011;39535;52.192;9.886;2023-03-11T04:21:24;7.07;;;3.40;;
13951;SDS011;39535;52.192;9.886;2023-03-11T04:23:50;3.07;;;2.57;;
13951;SDS011;39535;52.192;9.886;2023-03-11T04:26:17;7.10;;;3.10;;
13951;SDS011;39535;52.192;9.886;2023-03-11T04:28:44;4.80;;;3.70;;
13951;SDS011;39535;52.192;9.886;2023-03-11T04:31:11;7.70;;;3.50;;
13951;SDS011;39535;52.192;9.886;2023-03-11T04:33:37;3.27;;;2.70;;
13951;SDS011;39535;52.192;9.886;2023-03-11T04:36:04;4.73;;;2.93;;
13951;SDS011;39535;52.192;9.886;2023-03-11T04:38:31;5.17;;;2.93;;
13951;SDS011;39535;52.192;9.886;2023-03-11T04:40:58;4.97;;;2.80;;
13951;SDS011;39535;52.192;9.886;2023-03-11T04:43:25;6.87;;;3.47;;
13951;SDS011;39535;52.192;9.886;2023-03-11T04:45:53;5.23;;;2.93;;
13951;SDS011;39535;52.192;9.886;2023-03-11T04:48:19;4.23;;;2.80;;
13951;SDS011;39535;52.192;9.886;2023-03-11T04:50:45;3.60;;;2.50;;
13951;SDS011;39535;52.192;9.886;2023-03-11T04:53:12;4.60;;;3.10;;
13951;SDS011;39535;52.192;9.886;2023-03-11T04:55:38;4.47;;;2.63;;
13951;SDS011;39535;52.192;9.886;2023-03-11T04:58:05;3.37;;;2.70;;
13951;SDS011;39535;52.192;9.886;2023-03-11T05:00:32;5.50;;;2.47;;
13951;SDS011;39535;52.192;9.886;2023-03-11T05:02:59;7.77;;;2.80;;
13951;SDS011;39535;52.192;9.886;2023-03-11T05:05:26;4.77;;;2.40;;
13951;SDS011;39535;52.192;9.886;2023-03-11T05:07:52;4.30;;;2.37;;
13951;SDS011;39535;52.192;9.886;2023-03-11T05:10:19;5.83;;;2.30;;
13951;SDS011;39535;52.192;9.886;2023-03-11T05:12:47;4.53;;;2.13;;
13951;SDS011;39535;52.192;9.886;2023-03-11T05:15:14;3.57;;;2.23;;
13951;SDS011;39535;52.192;9.886;2023-03-11T05:17:40;2.63;;;1.90;;
13951;SDS011;39535;52.192;9.886;2023-03-11T05:20:08;3.13;;;1.90;;
13951;SDS011;39535;52.192;9.886;2023-03-11T05:22:36;3.43;;;2.17;;
13951;SDS011;39535;52.192;9.886;2023-03-11T05:25:02;3.27;;;2.30;;
13951;SDS011;39535;52.192;9.886;2023-03-11T05:27:30;4.73;;;2.00;;
13951;SDS011;39535;52.192;9.886;2023-03-11T05:29:56;4.43;;;1.80;;
13951;SDS011;39535;52.192;9.886;2023-03-11T05:32:22;6.07;;;1.97;;
13951;SDS011;39535;52.192;9.886;2023-03-11T05:34:49;4.07;;;2.10;;
13951;SDS011;39535;52.192;9.886;2023-03-11T05:37:17;9.43;;;2.03;;
13951;SDS011;39535;52.192;9.886;2023-03-11T05:39:44;6.23;;;2.43;;
13951;SDS011;39535;52.192;9.886;2023-03-11T05:42:10;7.20;;;2.30;;
13951;SDS011;39535;52.192;9.886;2023-03-11T05:44:36;3.63;;;2.03;;
13951;SDS011;39535;52.192;9.886;2023-03-11T05:47:03;5.20;;;2.40;;
13951;SDS011;39535;52.192;9.886;2023-03-11T05:52:00;6.77;;;2.83;;
13951;SDS011;39535;52.192;9.886;2023-03-11T05:54:27;3.23;;;1.90;;
13951;SDS011;39535;52.192;9.886;2023-03-11T05:56:54;2.77;;;2.23;;
13951;SDS011;39535;52.192;9.886;2023-03-11T05:59:20;5.10;;;1.93;;
13951;SDS011;39535;52.192;9.886;2023-03-11T06:01:47;4.73;;;1.83;;
13951;SDS011;39535;52.192;9.886;2023-03-11T06:04:13;6.53;;;2.03;;
13951;SDS011;39535;52.192;9.886;2023-03-11T06:06:39;3.17;;;1.80;;
13951;SDS011;39535;52.192;9.886;2023-03-11T06:09:09;2.60;;;1.60;;
13951;SDS011;39535;52.192;9.886;2023-03-11T06:11:38;2.07;;;1.47;;
13951;SDS011;39535;52.192;9.886;2023-03-11T06:14:05;3.50;;;1.30;;
13951;SDS011;39535;52.192;9.886;2023-03-11T06:16:31;2.80;;;1.60;;
13951;SDS011;39535;52.192;9.886;2023-03-11T06:18:57;4.43;;;1.23;;
13951;SDS011;39535;52.192;9.886;2023-03-11T06:21:24;3.13;;;1.43;;
13951;SDS011;39535;52.192;9.886;2023-03-11T06:23:51;4.63;;;1.40;;
13951;SDS011;39535;52.192;9.886;2023-03-11T06:26:18;2.57;;;1.33;;
13951;SDS011;39535;52.192;9.886;2023-03-11T06:28:47;5.23;;;1.47;;
13951;SDS011;39535;52.192;9.886;2023-03-11T06:31:15;2.50;;;1.23;;
13951;SDS011;39535;52.192;9.886;2023-03-11T06:33:43;1.80;;;0.90;;
13951;SDS011;39535;52.192;9.886;2023-03-11T06:36:09;2.73;;;1.23;;
13951;SDS011;39535;52.192;9.886;2023-03-11T06:38:41;3.83;;;1.10;;
13951;SDS011;39535;52.192;9.886;2023-03-11T06:41:08;3.73;;;1.03;;
13951;SDS011;39535;52.192;9.886;2023-03-11T06:43:35;5.20;;;1.20;;
13951;SDS011;39535;52.192;9.886;2023-03-11T06:46:08;2.47;;;1.30;;
13951;SDS011;39535;52.192;9.886;2023-03-11T06:48:35;1.83;;;1.30;;
13951;SDS011;39535;52.192;9.886;2023-03-11T06:51:01;3.00;;;1.30;;
13951;SDS011;39535;52.192;9.886;2023-03-11T06:53:28;2.10;;;1.20;;
13951;SDS011;39535;52.192;9.886;2023-03-11T06:55:58;6.70;;;1.40;;
13951;SDS011;39535;52.192;9.886;2023-03-11T06:58:26;1.87;;;1.30;;
13951;SDS011;39535;52.192;9.886;2023-03-11T07:00:53;5.47;;;1.23;;
13951;SDS011;39535;52.192;9.886;2023-03-11T07:03:21;5.43;;;1.47;;
13951;SDS011;39535;52.192;9.886;2023-03-11T07:05:49;3.93;;;1.30;;
13951;SDS011;39535;52.192;9.886;2023-03-11T07:08:15;5.87;;;1.30;;
13951;SDS011;39535;52.192;9.886;2023-03-11T07:10:42;4.93;;;1.20;;
13951;SDS011;39535;52.192;9.886;2023-03-11T07:13:08;2.93;;;1.30;;
13951;SDS011;39535;52.192;9.886;2023-03-11T07:15:35;3.07;;;1.40;;
13951;SDS011;39535;52.192;9.886;2023-03-11T07:18:01;7.37;;;1.50;;
13951;SDS011;39535;52.192;9.886;2023-03-11T07:20:29;3.63;;;1.30;;
13951;SDS011;39535;52.192;9.886;2023-03-11T07:22:55;4.00;;;1.30;;
13951;SDS011;39535;52.192;9.886;2023-03-11T07:25:21;2.13;;;1.20;;
13951;SDS011;39535;52.192;9.886;2023-03-11T07:27:48;4.03;;;1.57;;
13951;SDS011;39535;52.192;9.886;2023-03-11T07:30:14;3.80;;;1.17;;
13951;SDS011;39535;52.192;9.886;2023-03-11T07:32:41;2.47;;;1.03;;
13951;SDS011;39535;52.192;9.886;2023-03-11T07:35:07;4.33;;;1.13;;
13951;SDS011;39535;52.192;9.886;2023-03-11T07:37:35;1.30;;;1.00;;
13951;SDS011;39535;52.192;9.886;2023-03-11T07:40:02;3.63;;;1.20;;
13951;SDS011;39535;52.192;9.886;2023-03-11T07:42:28;2.83;;;1.45;;
13951;SDS011;39535;52.192;9.886;2023-03-11T07:44:55;3.07;;;1.43;;
13951;SDS011;39535;52.192;9.886;2023-03-11T07:47:21;2.07;;;1.50;;
13951;SDS011;39535;52.192;9.886;2023-03-11T07:49:48;5.27;;;1.30;;
13951;SDS011;39535;52.192;9.886;2023-03-11T07:52:15;3.17;;;1.30;;
13951;SDS011;39535;52.192;9.886;2023-03-11T07:54:42;5.57;;;2.30;;
13951;SDS011;39535;52.192;9.886;2023-03-11T07:57:09;2.77;;;1.20;;
13951;SDS011;39535;52.192;9.886;2023-03-11T07:59:41;3.77;;;1.40;;
13951;SDS011;39535;52.192;9.886;2023-03-11T08:02:08;6.63;;;1.33;;
13951;SDS011;39535;52.192;9.886;2023-03-11T08:04:34;5.13;;;1.20;;
13951;SDS011;39535;52.192;9.886;2023-03-11T08:07:01;3.17;;;1.67;;
13951;SDS011;39535;52.192;9.886;2023-03-11T08:09:27;2.00;;;1.47;;
13951;SDS011;39535;52.192;9.886;2023-03-11T08:11:55;4.63;;;1.50;;
13951;SDS011;39535;52.192;9.886;2023-03-11T08:14:21;3.00;;;1.50;;
13951;SDS011;39535;52.192;9.886;2023-03-11T08:16:47;4.07;;;1.43;;
13951;SDS011;39535;52.192;9.886;2023-03-11T08:19:14;2.20;;;1.30;;
13951;SDS011;39535;52.192;9.886;2023-03-11T08:21:40;1.83;;;1.30;;
13951;SDS011;39535;52.192;9.886;2023-03-11T08:24:08;4.47;;;1.30;;
13951;SDS011;39535;52.192;9.886;2023-03-11T08:26:36;2.10;;;1.70;;
13951;SDS011;39535;52.192;9.886;2023-03-11T08:29:05;5.97;;;1.50;;
13951;SDS011;39535;52.192;9.886;2023-03-11T08:31:32;6.67;;;1.50;;
13951;SDS011;39535;52.192;9.886;2023-03-11T08:34:00;3.33;;;1.30;;
13951;SDS011;39535;52.192;9.886;2023-03-11T08:36:28;2.63;;;1.30;;
13951;SDS011;39535;52.192;9.886;2023-03-11T08:38:55;3.87;;;1.50;;
13951;SDS011;39535;52.192;9.886;2023-03-11T08:41:22;3.13;;;1.53;;
13951;SDS011;39535;52.192;9.886;2023-03-11T08:43:49;3.47;;;1.67;;
13951;SDS011;39535;52.192;9.886;2023-03-11T08:46:20;2.30;;;1.53;;
13951;SDS011;39535;52.192;9.886;2023-03-11T08:48:49;3.40;;;1.60;;
13951;SDS011;39535;52.192;9.886;2023-03-11T08:51:15;3.57;;;1.53;;
13951;SDS011;39535;52.192;9.886;2023-03-11T08:53:42;4.67;;;1.53;;
13951;SDS011;39535;52.192;9.886;2023-03-11T08:56:09;2.07;;;1.40;;
13951;SDS011;39535;52.192;9.886;2023-03-11T08:58:35;5.33;;;1.70;;
13951;SDS011;39535;52.192;9.886;2023-03-11T09:01:02;1.77;;;1.60;;
13951;SDS011;39535;52.192;9.886;2023-03-11T09:03:31;11.73;;;2.37;;
13951;SDS011;39535;52.192;9.886;2023-03-11T09:06:00;2.90;;;1.70;;
13951;SDS011;39535;52.192;9.886;2023-03-11T09:08:28;8.50;;;1.80;;
13951;SDS011;39535;52.192;9.886;2023-03-11T09:10:55;4.70;;;1.60;;
13951;SDS011;39535;52.192;9.886;2023-03-11T09:13:21;2.53;;;1.50;;
13951;SDS011;39535;52.192;9.886;2023-03-11T09:15:48;1.63;;;1.37;;
13951;SDS011;39535;52.192;9.886;2023-03-11T09:18:16;2.57;;;1.37;;
13951;SDS011;39535;52.192;9.886;2023-03-11T09:20:44;5.23;;;1.70;;
13951;SDS011;39535;52.192;9.886;2023-03-11T09:23:12;3.73;;;1.60;;
13951;SDS011;39535;52.192;9.886;2023-03-11T09:25:40;3.50;;;1.90;;
13951;SDS011;39535;52.192;9.886;2023-03-11T09:28:07;1.93;;;1.60;;
13951;SDS011;39535;52.192;9.886;2023-03-11T09:30:33;3.70;;;2.13;;
13951;SDS011;39535;52.192;9.886;2023-03-11T09:33:00;3.47;;;1.90;;
13951;SDS011;39535;52.192;9.886;2023-03-11T09:35:27;2.87;;;1.37;;
13951;SDS011;39535;52.192;9.886;2023-03-11T09:37:55;3.47;;;1.53;;
13951;SDS011;39535;52.192;9.886;2023-03-11T09:40:22;1.47;;;1.37;;
13951;SDS011;39535;52.192;9.886;2023-03-11T09:42:53;5.33;;;2.50;;
13951;SDS011;39535;52.192;9.886;2023-03-11T09:45:34;3.37;;;1.93;;
13951;SDS011;39535;52.192;9.886;2023-03-11T09:48:13;3.17;;;1.50;;
13951;SDS011;39535;52.192;9.886;2023-03-11T09:50:47;2.17;;;1.60;;
13951;SDS011;39535;52.192;9.886;2023-03-11T09:53:21;2.33;;;1.60;;
13951;SDS011;39535;52.192;9.886;2023-03-11T09:55:58;3.47;;;2.23;;
13951;SDS011;39535;52.192;9.886;2023-03-11T09:58:30;2.53;;;1.70;;
13951;SDS011;39535;52.192;9.886;2023-03-11T10:01:02;6.47;;;1.83;;
13951;SDS011;39535;52.192;9.886;2023-03-11T10:03:39;3.90;;;2.13;;
13951;SDS011;39535;52.192;9.886;2023-03-11T10:06:11;2.80;;;1.73;;
13951;SDS011;39535;52.192;9.886;2023-03-11T10:08:50;1.60;;;1.50;;
13951;SDS011;39535;52.192;9.886;2023-03-11T10:11:26;4.83;;;3.33;;
13951;SDS011;39535;52.192;9.886;2023-03-11T10:14:05;2.13;;;1.40;;
13951;SDS011;39535;52.192;9.886;2023-03-11T10:16:44;3.43;;;1.70;;
13951;SDS011;39535;52.192;9.886;2023-03-11T10:19:21;2.60;;;1.60;;
13951;SDS011;39535;52.192;9.886;2023-03-11T10:21:58;2.90;;;1.60;;
13951;SDS011;39535;52.192;9.886;2023-03-11T10:24:42;5.77;;;1.60;;
13951;SDS011;39535;52.192;9.886;2023-03-11T10:27:16;2.77;;;1.57;;
13951;SDS011;39535;52.192;9.886;2023-03-11T10:29:48;3.63;;;1.87;;
13951;SDS011;39535;52.192;9.886;2023-03-11T10:32:21;2.03;;;1.73;;
13951;SDS011;39535;52.192;9.886;2023-03-11T10:34:54;3.80;;;3.43;;
13951;SDS011;39535;52.192;9.886;2023-03-11T10:37:25;1.50;;;1.20;;
13951;SDS011;39535;52.192;9.886;2023-03-11T10:39:56;3.83;;;1.50;;
13951;SDS011;39535;52.192;9.886;2023-03-11T10:42:29;3.20;;;1.50;;
13951;SDS011;39535;52.192;9.886;2023-03-11T10:44:58;7.70;;;1.63;;
13951;SDS011;39535;52.192;9.886;2023-03-11T10:47:25;3.63;;;1.77;;
13951;SDS011;39535;52.192;9.886;2023-03-11T10:49:51;7.00;;;5.17;;
13951;SDS011;39535;52.192;9.886;2023-03-11T10:52:18;9.10;;;5.63;;
13951;SDS011;39535;52.192;9.886;2023-03-11T10:54:46;12.73;;;7.53;;
13951;SDS011;39535;52.192;9.886;2023-03-11T10:57:22;12.20;;;7.00;;
13951;SDS011;39535;52.192;9.886;2023-03-11T10:59:50;4.93;;;3.70;;
13951;SDS011;39535;52.192;9.886;2023-03-11T11:02:20;6.80;;;5.87;;
13951;SDS011;39535;52.192;9.886;2023-03-11T11:04:50;8.73;;;5.17;;
13951;SDS011;39535;52.192;9.886;2023-03-11T11:07:31;4.77;;;3.43;;
13951;SDS011;39535;52.192;9.886;2023-03-11T11:10:12;3.43;;;1.90;;
13951;SDS011;39535;52.192;9.886;2023-03-11T11:12:51;4.40;;;2.60;;
13951;SDS011;39535;52.192;9.886;2023-03-11T11:15:20;8.97;;;5.70;;
13951;SDS011;39535;52.192;9.886;2023-03-11T11:17:48;5.10;;;2.50;;
13951;SDS011;39535;52.192;9.886;2023-03-11T11:20:15;5.13;;;2.50;;
13951;SDS011;39535;52.192;9.886;2023-03-11T11:22:47;6.33;;;2.97;;
13951;SDS011;39535;52.192;9.886;2023-03-11T11:25:23;9.93;;;5.70;;
13951;SDS011;39535;52.192;9.886;2023-03-11T11:27:54;2.97;;;2.50;;
13951;SDS011;39535;52.192;9.886;2023-03-11T11:30:21;6.37;;;2.37;;
13951;SDS011;39535;52.192;9.886;2023-03-11T11:32:48;3.07;;;1.47;;
13951;SDS011;39535;52.192;9.886;2023-03-11T11:35:18;4.70;;;1.83;;
13951;SDS011;39535;52.192;9.886;2023-03-11T11:37:46;6.07;;;3.23;;
13951;SDS011;39535;52.192;9.886;2023-03-11T11:40:16;2.23;;;1.63;;
13951;SDS011;39535;52.192;9.886;2023-03-11T11:42:54;2.30;;;1.50;;
13951;SDS011;39535;52.192;9.886;2023-03-11T11:45:26;2.63;;;1.40;;
13951;SDS011;39535;52.192;9.886;2023-03-11T11:47:58;3.97;;;2.80;;
13951;SDS011;39535;52.192;9.886;2023-03-11T11:50:30;7.67;;;3.07;;
13951;SDS011;39535;52.192;9.886;2023-03-11T11:53:00;3.80;;;2.77;;
13951;SDS011;39535;52.192;9.886;2023-03-11T11:55:36;4.20;;;2.10;;
13951;SDS011;39535;52.192;9.886;2023-03-11T11:58:09;3.50;;;1.90;;
13951;SDS011;39535;52.192;9.886;2023-03-11T12:00:39;4.63;;;1.27;;
13951;SDS011;39535;52.192;9.886;2023-03-11T12:06:24;2.30;;;1.20;;
13951;SDS011;39535;52.192;9.886;2023-03-11T12:09:00;2.47;;;1.20;;
13951;SDS011;39535;52.192;9.886;2023-03-11T12:11:33;5.03;;;1.00;;
13951;SDS011;39535;52.192;9.886;2023-03-11T12:14:06;3.83;;;1.43;;
13951;SDS011;39535;52.192;9.886;2023-03-11T12:16:42;1.97;;;0.80;;
13951;SDS011;39535;52.192;9.886;2023-03-11T12:19:18;2.10;;;1.07;;
13951;SDS011;39535;52.192;9.886;2023-03-11T12:22:00;2.93;;;0.87;;
13951;SDS011;39535;52.192;9.886;2023-03-11T12:24:44;1.70;;;0.93;;
13951;SDS011;39535;52.192;9.886;2023-03-11T12:27:21;1.70;;;0.70;;
13951;SDS011;39535;52.192;9.886;2023-03-11T12:29:53;3.03;;;1.27;;
13951;SDS011;39535;52.192;9.886;2023-03-11T12:32:27;2.73;;;1.53;;
13951;SDS011;39535;52.192;9.886;2023-03-11T12:34:59;2.03;;;1.20;;
13951;SDS011;39535;52.192;9.886;2023-03-11T12:37:28;6.10;;;2.20;;
13951;SDS011;39535;52.192;9.886;2023-03-11T12:39:55;2.97;;;1.30;;
13951;SDS011;39535;52.192;9.886;2023-03-11T12:42:22;2.53;;;1.70;;
13951;SDS011;39535;52.192;9.886;2023-03-11T12:44:50;1.90;;;1.70;;
13951;SDS011;39535;52.192;9.886;2023-03-11T12:47:20;2.03;;;1.00;;
13951;SDS011;39535;52.192;9.886;2023-03-11T12:49:49;3.00;;;1.10;;
13951;SDS011;39535;52.192;9.886;2023-03-11T12:52:19;2.37;;;0.63;;
13951;SDS011;39535;52.192;9.886;2023-03-11T12:58:05;1.93;;;0.97;;
13951;SDS011;39535;52.192;9.886;2023-03-11T13:00:56;1.50;;;1.27;;
13951;SDS011;39535;52.192;9.886;2023-03-11T13:03:47;2.83;;;1.23;;
13951;SDS011;39535;52.192;9.886;2023-03-11T13:06:25;1.83;;;1.00;;
13951;SDS011;39535;52.192;9.886;2023-03-11T13:09:02;2.57;;;1.07;;
13951;SDS011;39535;52.192;9.886;2023-03-11T13:11:35;3.30;;;1.70;;
13951;SDS011;39535;52.192;9.886;2023-03-11T13:14:08;2.90;;;0.90;;
13951;SDS011;39535;52.192;9.886;2023-03-11T13:16:43;3.97;;;1.00;;
13951;SDS011;39535;52.192;9.886;2023-03-11T13:25:39;2.87;;;1.70;;
13951;SDS011;39535;52.192;9.886;2023-03-11T13:28:14;3.47;;;0.80;;
13951;SDS011;39535;52.192;9.886;2023-03-11T13:30:57;2.00;;;1.20;;
13951;SDS011;39535;52.192;9.886;2023-03-11T13:33:44;1.90;;;1.10;;
13951;SDS011;39535;52.192;9.886;2023-03-11T13:39:35;4.20;;;1.37;;
13951;SDS011;39535;52.192;9.886;2023-03-11T13:42:16;5.13;;;1.63;;
13951;SDS011;39535;52.192;9.886;2023-03-11T13:44:49;2.83;;;0.83;;
13951;SDS011;39535;52.192;9.886;2023-03-11T13:47:16;2.63;;;0.90;;
13951;SDS011;39535;52.192;9.886;2023-03-11T13:49:47;2.40;;;0.80;;
13951;SDS011;39535;52.192;9.886;2023-03-11T13:52:23;1.93;;;0.83;;
13951;SDS011;39535;52.192;9.886;2023-03-11T13:54:55;3.30;;;1.37;;
13951;SDS011;39535;52.192;9.886;2023-03-11T13:57:26;3.00;;;1.03;;
13951;SDS011;39535;52.192;9.886;2023-03-11T13:59:55;3.83;;;0.70;;
13951;SDS011;39535;52.192;9.886;2023-03-11T14:02:23;0.90;;;0.70;;
13951;SDS011;39535;52.192;9.886;2023-03-11T14:04:52;1.27;;;1.00;;
13951;SDS011;39535;52.192;9.886;2023-03-11T14:07:25;3.20;;;1.40;;
13951;SDS011;39535;52.192;9.886;2023-03-11T14:10:16;3.90;;;1.13;;
13951;SDS011;39535;52.192;9.886;2023-03-11T14:12:51;2.40;;;0.80;;
13951;SDS011;39535;52.192;9.886;2023-03-11T14:15:29;3.10;;;1.00;;
13951;SDS011;39535;52.192;9.886;2023-03-11T14:18:25;1.30;;;0.70;;
13951;SDS011;39535;52.192;9.886;2023-03-11T14:21:02;3.80;;;0.90;;
13951;SDS011;39535;52.192;9.886;2023-03-11T14:23:32;2.53;;;1.47;;
13951;SDS011;39535;52.192;9.886;2023-03-11T14:26:03;2.47;;;0.70;;
13951;SDS011;39535;52.192;9.886;2023-03-11T14:28:32;6.90;;;1.40;;
13951;SDS011;39535;52.192;9.886;2023-03-11T14:31:02;1.77;;;0.70;;
13951;SDS011;39535;52.192;9.886;2023-03-11T14:33:29;2.20;;;2.00;;
13951;SDS011;39535;52.192;9.886;2023-03-11T14:35:56;4.73;;;1.27;;
13951;SDS011;39535;52.192;9.886;2023-03-11T14:38:24;2.93;;;0.70;;
13951;SDS011;39535;52.192;9.886;2023-03-11T14:40:53;1.80;;;0.80;;
13951;SDS011;39535;52.192;9.886;2023-03-11T14:43:23;9.23;;;0.97;;
13951;SDS011;39535;52.192;9.886;2023-03-11T14:45:50;3.37;;;1.10;;
13951;SDS011;39535;52.192;9.886;2023-03-11T14:48:18;4.80;;;1.60;;
13951;SDS011;39535;52.192;9.886;2023-03-11T14:50:50;2.90;;;0.70;;
13951;SDS011;39535;52.192;9.886;2023-03-11T14:53:19;3.20;;;1.20;;
13951;SDS011;39535;52.192;9.886;2023-03-11T14:55:49;0.80;;;0.60;;
13951;SDS011;39535;52.192;9.886;2023-03-11T14:58:20;2.47;;;0.90;;
13951;SDS011;39535;52.192;9.886;2023-03-11T15:00:54;0.73;;;0.60;;
13951;SDS011;39535;52.192;9.886;2023-03-11T15:03:25;2.00;;;0.70;;
13951;SDS011;39535;52.192;9.886;2023-03-11T15:05:56;1.10;;;0.50;;
13951;SDS011;39535;52.192;9.886;2023-03-11T15:08:26;2.53;;;0.90;;
13951;SDS011;39535;52.192;9.886;2023-03-11T15:10:59;2.10;;;0.70;;
13951;SDS011;39535;52.192;9.886;2023-03-11T15:13:33;2.07;;;0.77;;
13951;SDS011;39535;52.192;9.886;2023-03-11T15:16:01;0.90;;;0.60;;
13951;SDS011;39535;52.192;9.886;2023-03-11T15:18:30;1.97;;;0.47;;